createdAt,value
2023-01-11T00:01:59.460Z,14.57
2023-01-11T00:04:30.422Z,13.70
2023-01-11T00:06:57.885Z,14.60
2023-01-11T00:09:24.696Z,15.57
2023-01-11T00:11:51.650Z,15.68
2023-01-11T00:14:18.558Z,14.55
2023-01-11T00:16:45.238Z,14.05
2023-01-11T00:19:12.117Z,15.55
2023-01-11T00:21:38.964Z,14.48
2023-01-11T00:24:06.063Z,15.65
2023-01-11T00:26:32.859Z,12.70
2023-01-11T00:28:59.543Z,13.48
2023-01-11T00:31:26.210Z,13.57
2023-01-11T00:33:53.023Z,13.48
2023-01-11T00:36:19.780Z,13.10
2023-01-11T00:38:54.042Z,12.55
2023-01-11T00:41:41.360Z,12.85
2023-01-11T00:44:29.265Z,13.82
2023-01-11T00:47:14.774Z,11.70
2023-01-11T00:49:41.973Z,13.60
2023-01-11T00:52:09.767Z,11.95
2023-01-11T00:54:40.741Z,12.80
2023-01-11T00:57:08.700Z,12.85
2023-01-11T00:59:36.515Z,11.82
2023-01-11T01:02:04.145Z,12.95
2023-01-11T01:04:31.276Z,11.75
2023-01-11T01:06:58.112Z,13.27
2023-01-11T01:09:25.174Z,12.82
2023-01-11T01:11:51.814Z,12.70
2023-01-11T01:14:31.033Z,12.70
2023-01-11T01:17:03.823Z,13.38
2023-01-11T01:19:31.531Z,12.60
2023-01-11T01:21:59.331Z,13.85
2023-01-11T01:24:30.921Z,13.10
2023-01-11T01:26:58.657Z,12.60
2023-01-11T01:29:25.847Z,13.77
2023-01-11T01:31:52.541Z,11.15
2023-01-11T01:34:19.275Z,13.02
2023-01-11T01:36:45.976Z,13.07
2023-01-11T01:39:13.328Z,13.57
2023-01-11T01:41:40.269Z,11.18
2023-01-11T01:44:44.486Z,12.52
2023-01-11T01:47:11.889Z,10.95
2023-01-11T01:49:39.065Z,11.32
2023-01-11T01:52:06.137Z,12.50
2023-01-11T01:54:39.496Z,11.02
2023-01-11T01:57:12.384Z,10.98
2023-01-11T01:59:39.285Z,10.48
2023-01-11T02:02:06.031Z,13.90
2023-01-11T02:04:38.894Z,10.88
2023-01-11T02:07:14.691Z,11.93
2023-01-11T02:09:51.369Z,12.25
2023-01-11T02:12:19.140Z,11.15
2023-01-11T02:14:47.465Z,10.15
2023-01-11T02:17:14.185Z,9.07
2023-01-11T02:20:05.778Z,11.65
2023-01-11T02:22:47.346Z,9.52
2023-01-11T02:25:38.762Z,11.30
2023-01-11T02:28:30.006Z,11.48
2023-01-11T02:31:08.928Z,9.32
2023-01-11T02:34:11.095Z,10.73
2023-01-11T02:37:04.958Z,9.25
2023-01-11T02:39:31.562Z,8.98
2023-01-11T02:42:24.297Z,8.85
2023-01-11T02:45:06.455Z,11.65
2023-01-11T02:47:57.350Z,9.80
2023-01-11T02:50:43.825Z,9.18
2023-01-11T02:53:49.029Z,9.13
2023-01-11T02:56:25.794Z,9.98
2023-01-11T02:58:56.271Z,6.40
2023-01-11T03:01:23.499Z,8.55
2023-01-11T03:03:51.549Z,8.70
2023-01-11T03:06:21.103Z,8.27
2023-01-11T03:09:15.173Z,11.02
2023-01-11T03:12:03.435Z,8.48
2023-01-11T03:14:45.085Z,8.88
2023-01-11T03:17:45.265Z,9.13
2023-01-11T03:20:25.515Z,10.38
2023-01-11T03:23:13.966Z,10.32
2023-01-11T03:25:47.397Z,8.65
2023-01-11T03:28:36.926Z,9.20
2023-01-11T03:31:19.333Z,9.52
2023-01-11T03:34:04.072Z,9.27
2023-01-11T03:36:40.333Z,10.15
2023-01-11T03:39:19.432Z,9.57
2023-01-11T03:41:48.677Z,5.95
2023-01-11T03:44:18.327Z,6.97
2023-01-11T03:46:49.209Z,4.13
2023-01-11T03:49:22.850Z,4.53
2023-01-11T03:51:52.220Z,3.28
2023-01-11T03:54:23.426Z,5.00
2023-01-11T03:57:06.469Z,3.30
2023-01-11T03:59:33.933Z,3.05
2023-01-11T04:02:01.326Z,6.10
2023-01-11T04:04:28.403Z,5.10
2023-01-11T04:06:55.212Z,3.63
2023-01-11T04:09:22.128Z,3.08
2023-01-11T04:11:48.892Z,5.03
2023-01-11T04:14:15.755Z,9.25
2023-01-11T04:16:42.857Z,6.55
2023-01-11T04:19:09.613Z,9.38
2023-01-11T04:21:36.315Z,9.45
2023-01-11T04:24:02.975Z,11.20
2023-01-11T04:26:29.721Z,8.63
2023-01-11T04:28:56.442Z,14.93
2023-01-11T04:31:23.163Z,16.95
2023-01-11T04:33:49.919Z,18.75
2023-01-11T04:36:16.661Z,18.83
2023-01-11T04:38:43.521Z,17.88
2023-01-11T04:41:28.494Z,21.33
2023-01-11T04:43:58.851Z,17.50
2023-01-11T04:46:25.695Z,20.83
2023-01-11T04:48:52.806Z,22.10
2023-01-11T04:51:19.591Z,22.67
2023-01-11T04:53:48.220Z,24.42
2023-01-11T04:56:16.325Z,20.02
2023-01-11T04:58:43.488Z,22.65
2023-01-11T05:01:16.764Z,24.38
2023-01-11T05:03:45.473Z,26.83
2023-01-11T05:06:13.343Z,24.52
2023-01-11T05:08:40.362Z,25.42
2023-01-11T05:11:08.326Z,24.42
2023-01-11T05:13:44.291Z,27.70
2023-01-11T05:16:12.203Z,27.17
2023-01-11T05:18:44.457Z,31.10
2023-01-11T05:21:13.806Z,28.13
2023-01-11T05:23:41.369Z,25.48
2023-01-11T05:26:17.800Z,27.00
2023-01-11T05:28:46.145Z,34.17
2023-01-11T05:31:13.307Z,30.73
2023-01-11T05:33:40.078Z,28.95
2023-01-11T05:36:11.810Z,28.45
2023-01-11T05:38:38.507Z,27.30
2023-01-11T05:41:08.441Z,24.27
2023-01-11T05:43:58.777Z,30.40
2023-01-11T05:46:27.297Z,28.38
2023-01-11T05:48:59.220Z,28.00
2023-01-11T05:51:26.676Z,23.90
2023-01-11T05:53:53.495Z,20.90
2023-01-11T05:56:20.269Z,28.00
2023-01-11T05:58:51.006Z,26.38
2023-01-11T06:01:20.228Z,23.50
2023-01-11T06:03:47.329Z,26.35
2023-01-11T06:06:15.115Z,34.47
2023-01-11T06:08:41.988Z,27.08
2023-01-11T06:11:08.932Z,28.33
2023-01-11T06:13:36.084Z,22.83
2023-01-11T06:16:05.992Z,30.70
2023-01-11T06:18:35.179Z,26.77
2023-01-11T06:21:02.182Z,27.00
2023-01-11T06:23:30.246Z,26.92
2023-01-11T06:26:00.647Z,29.38
2023-01-11T06:28:28.385Z,30.73
2023-01-11T06:30:56.539Z,26.52
2023-01-11T06:33:25.480Z,31.00
2023-01-11T06:35:52.723Z,30.92
2023-01-11T06:38:22.064Z,29.00
2023-01-11T06:41:15.866Z,27.27
2023-01-11T06:43:42.696Z,29.90
2023-01-11T06:46:14.910Z,28.42
2023-01-11T06:48:43.232Z,26.35
2023-01-11T06:51:12.934Z,29.02
2023-01-11T06:53:41.791Z,27.10
2023-01-11T06:56:12.493Z,27.05
2023-01-11T07:01:06.622Z,25.38
2023-01-11T07:03:33.639Z,25.65
2023-01-11T07:06:01.497Z,29.27
2023-01-11T07:08:28.539Z,26.33
2023-01-11T07:10:55.514Z,27.67
2023-01-11T07:13:22.707Z,30.38
2023-01-11T07:15:50.825Z,32.63
2023-01-11T07:18:19.762Z,28.27
2023-01-11T07:20:47.138Z,26.00
2023-01-11T07:23:13.921Z,25.70
2023-01-11T07:25:41.394Z,22.40
2023-01-11T07:28:08.943Z,23.17
2023-01-11T07:30:55.330Z,21.55
2023-01-11T07:33:22.814Z,26.23
2023-01-11T07:35:49.833Z,24.13
2023-01-11T07:38:16.676Z,23.40
2023-01-11T07:40:43.505Z,100.03
2023-01-11T07:43:14.667Z,123.47
2023-01-11T07:45:46.175Z,30.20
2023-01-11T07:48:14.440Z,29.20
2023-01-11T07:50:44.588Z,28.73
2023-01-11T07:55:39.883Z,36.65
2023-01-11T07:58:07.596Z,21.13
2023-01-11T08:00:34.503Z,22.80
2023-01-11T08:03:02.224Z,23.02
2023-01-11T08:05:29.345Z,19.27
2023-01-11T08:07:56.099Z,25.15
2023-01-11T08:10:23.005Z,23.05
2023-01-11T08:13:12.060Z,23.85
2023-01-11T08:15:42.469Z,24.88
2023-01-11T08:18:11.417Z,23.60
2023-01-11T08:20:39.313Z,25.80
2023-01-11T08:23:08.103Z,22.88
2023-01-11T08:25:35.097Z,19.50
2023-01-11T08:28:05.915Z,17.88
2023-01-11T08:30:33.342Z,22.33
2023-01-11T08:33:04.438Z,24.02
2023-01-11T08:35:36.816Z,25.13
2023-01-11T08:38:03.598Z,24.95
2023-01-11T08:40:30.323Z,23.27
2023-01-11T08:42:57.648Z,19.75
2023-01-11T08:45:25.527Z,21.85
2023-01-11T08:47:52.795Z,24.85
2023-01-11T08:50:19.934Z,23.00
2023-01-11T08:52:48.278Z,21.35
2023-01-11T08:55:15.130Z,20.48
2023-01-11T08:57:41.969Z,21.50
2023-01-11T09:00:09.357Z,19.08
2023-01-11T09:02:36.114Z,20.77
2023-01-11T09:05:03.311Z,21.52
2023-01-11T09:07:30.112Z,15.15
2023-01-11T09:09:56.801Z,15.50
2023-01-11T09:12:23.653Z,20.17
2023-01-11T09:14:50.503Z,26.65
2023-01-11T09:17:17.189Z,20.55
2023-01-11T09:19:44.048Z,20.52
2023-01-11T09:22:11.557Z,16.75
2023-01-11T09:24:38.285Z,18.08
2023-01-11T09:27:05.221Z,20.42
2023-01-11T09:29:32.892Z,22.92
2023-01-11T09:32:00.642Z,18.55
2023-01-11T09:34:27.686Z,17.58
2023-01-11T09:36:56.819Z,20.52
2023-01-11T09:39:26.405Z,18.77
2023-01-11T09:42:29.525Z,18.38
2023-01-11T09:45:18.585Z,17.88
2023-01-11T09:47:48.977Z,18.88
2023-01-11T09:50:41.214Z,19.85
2023-01-11T09:53:14.587Z,51.70
2023-01-11T09:55:45.851Z,63.97
2023-01-11T09:58:32.591Z,20.27
2023-01-11T10:01:03.342Z,18.92
2023-01-11T10:03:36.153Z,19.13
2023-01-11T10:06:37.748Z,22.05
2023-01-11T10:18:26.287Z,18.60
2023-01-11T10:18:43.343Z,18.50
2023-01-11T10:21:42.725Z,18.45
2023-01-11T10:24:21.698Z,18.85
2023-01-11T10:26:51.296Z,19.27
2023-01-11T10:29:58.435Z,20.95
2023-01-11T10:32:54.428Z,17.23
2023-01-11T10:35:59.048Z,20.95
2023-01-11T10:39:08.108Z,15.32
2023-01-11T10:41:49.040Z,19.80
2023-01-11T10:44:24.610Z,22.58
2023-01-11T10:46:53.915Z,82.75
2023-01-11T10:49:35.651Z,26.42
2023-01-11T10:52:15.108Z,19.98
2023-01-11T10:54:46.895Z,19.98
2023-01-11T10:57:23.250Z,25.73
2023-01-11T10:59:56.381Z,23.05
2023-01-11T11:02:42.713Z,22.38
2023-01-11T11:05:28.206Z,20.52
2023-01-11T11:08:01.002Z,17.92
2023-01-11T11:10:53.892Z,22.73
2023-01-11T11:13:32.611Z,26.77
2023-01-11T11:16:17.930Z,23.73
2023-01-11T11:18:45.272Z,23.80
2023-01-11T11:21:22.655Z,26.05
2023-01-11T11:24:02.374Z,19.00
2023-01-11T11:26:38.430Z,22.00
2023-01-11T11:29:10.679Z,18.70
2023-01-11T11:31:44.316Z,24.80
2023-01-11T11:34:17.573Z,22.40
2023-01-11T11:36:46.788Z,25.08
2023-01-11T11:39:27.355Z,22.48
2023-01-11T11:44:28.434Z,18.90
2023-01-11T11:47:07.002Z,21.70
2023-01-11T11:49:35.948Z,25.85
2023-01-11T11:52:04.916Z,21.55
2023-01-11T11:54:36.192Z,22.20
2023-01-11T11:57:42.528Z,20.58
2023-01-11T12:00:31.058Z,24.08
2023-01-11T12:03:10.914Z,27.50
2023-01-11T12:05:37.791Z,27.13
2023-01-11T12:08:04.805Z,21.27
2023-01-11T12:10:32.545Z,25.13
2023-01-11T12:13:02.194Z,30.98
2023-01-11T12:15:33.906Z,27.52
2023-01-11T12:18:38.319Z,23.10
2023-01-11T12:21:19.020Z,26.35
2023-01-11T12:23:46.792Z,21.27
2023-01-11T12:26:20.783Z,21.35
2023-01-11T12:29:05.002Z,25.33
2023-01-11T12:32:01.185Z,32.83
2023-01-11T12:34:30.842Z,21.80
2023-01-11T12:37:15.912Z,23.97
2023-01-11T12:40:13.645Z,22.88
2023-01-11T12:43:04.661Z,25.90
2023-01-11T12:45:40.846Z,22.92
2023-01-11T12:48:13.171Z,25.17
2023-01-11T12:50:58.152Z,25.20
2023-01-11T12:53:31.989Z,24.00
2023-01-11T12:56:20.403Z,28.60
2023-01-11T12:58:56.196Z,24.38
2023-01-11T13:01:38.169Z,46.50
2023-01-11T13:04:40.079Z,31.65
2023-01-11T13:07:32.783Z,87.97
2023-01-11T13:10:57.343Z,26.15
2023-01-11T13:21:32.222Z,22.75
2023-01-11T13:24:06.458Z,27.83
2023-01-11T13:26:45.924Z,28.90
2023-01-11T13:29:25.744Z,29.13
2023-01-11T13:31:54.966Z,23.00
2023-01-11T13:34:32.999Z,27.67
2023-01-11T13:37:06.658Z,29.65
2023-01-11T13:39:42.764Z,29.70
2023-01-11T13:42:17.746Z,25.65
2023-01-11T13:44:51.676Z,25.35
2023-01-11T13:47:29.409Z,27.23
2023-01-11T13:50:05.562Z,30.15
2023-01-11T13:52:50.164Z,28.60
2023-01-11T13:55:26.782Z,28.95
2023-01-11T13:58:06.594Z,25.38
2023-01-11T14:00:52.561Z,30.17
2023-01-11T14:03:40.142Z,30.05
2023-01-11T14:06:39.933Z,25.63
2023-01-11T14:09:52.100Z,26.58
2023-01-11T14:13:05.113Z,21.92
2023-01-11T14:15:40.548Z,34.40
2023-01-11T14:18:13.647Z,31.92
2023-01-11T14:20:55.875Z,25.17
2023-01-11T14:23:53.097Z,26.33
2023-01-11T14:26:57.745Z,24.95
2023-01-11T14:29:49.422Z,27.27
2023-01-11T14:32:40.470Z,23.90
2023-01-11T14:35:42.352Z,24.70
2023-01-11T14:38:28.999Z,27.05
2023-01-11T14:41:46.506Z,27.25
2023-01-11T14:44:45.904Z,28.25
2023-01-11T14:47:36.919Z,28.73
2023-01-11T14:50:13.127Z,27.10
2023-01-11T14:52:42.113Z,23.33
2023-01-11T14:55:23.006Z,25.75
2023-01-11T14:57:55.406Z,24.48
2023-01-11T15:00:22.103Z,24.85
2023-01-11T15:03:01.109Z,24.73
2023-01-11T15:05:33.466Z,29.27
2023-01-11T15:08:15.654Z,27.70
2023-01-11T15:10:45.152Z,23.30
2023-01-11T15:13:23.158Z,28.60
2023-01-11T15:16:10.108Z,23.27
2023-01-11T15:18:46.356Z,25.75
2023-01-11T15:21:21.573Z,29.40
2023-01-11T15:23:54.705Z,26.73
2023-01-11T15:26:23.480Z,27.55
2023-01-11T15:28:56.597Z,26.15
2023-01-11T15:31:58.569Z,28.02
2023-01-11T15:34:28.982Z,28.45
2023-01-11T15:37:02.452Z,26.88
2023-01-11T15:39:39.842Z,30.63
2023-01-11T15:42:15.480Z,23.77
2023-01-11T15:45:10.170Z,26.65
2023-01-11T15:47:49.792Z,30.30
2023-01-11T15:50:59.350Z,23.63
2023-01-11T15:53:42.028Z,27.17
2023-01-11T15:56:39.169Z,24.48
2023-01-11T15:59:30.489Z,30.90
2023-01-11T16:02:18.730Z,28.90
2023-01-11T16:05:06.242Z,24.52
2023-01-11T16:07:44.986Z,28.45
2023-01-11T16:10:31.046Z,29.52
2023-01-11T16:13:15.402Z,22.90
2023-01-11T16:15:51.001Z,26.90
2023-01-11T16:18:23.124Z,25.75
2023-01-11T16:21:04.021Z,29.15
2023-01-11T16:23:32.643Z,28.73
2023-01-11T16:26:00.695Z,29.08
2023-01-11T16:28:28.478Z,25.77
2023-01-11T16:31:01.990Z,29.48
2023-01-11T16:33:31.705Z,26.70
2023-01-11T16:36:12.231Z,25.57
2023-01-11T16:38:56.642Z,24.77
2023-01-11T16:41:27.728Z,25.70
2023-01-11T16:44:01.522Z,22.77
2023-01-11T16:46:46.481Z,27.42
2023-01-11T16:49:19.724Z,25.92
2023-01-11T16:51:48.566Z,27.88
2023-01-11T16:54:30.916Z,26.60
2023-01-11T16:56:59.429Z,24.35
2023-01-11T16:59:30.845Z,28.92
2023-01-11T17:02:06.231Z,29.70
2023-01-11T17:04:36.438Z,22.35
2023-01-11T17:07:13.949Z,21.15
2023-01-11T17:09:43.755Z,29.25
2023-01-11T17:12:17.104Z,25.42
2023-01-11T17:14:56.141Z,27.50
2023-01-11T17:17:23.681Z,25.60
2023-01-11T17:19:50.862Z,27.95
2023-01-11T17:22:29.578Z,25.20
2023-01-11T17:25:07.095Z,28.70
2023-01-11T17:27:41.605Z,29.48
2023-01-11T17:30:21.638Z,27.27
2023-01-11T17:32:54.657Z,25.50
2023-01-11T17:35:24.185Z,25.20
2023-01-11T17:37:54.769Z,25.92
2023-01-11T17:40:24.999Z,24.08
2023-01-11T17:43:11.062Z,27.77
2023-01-11T17:45:38.697Z,27.25
2023-01-11T17:48:14.394Z,24.08
2023-01-11T17:50:54.651Z,26.30
2023-01-11T17:53:26.916Z,25.00
2023-01-11T17:55:57.663Z,20.98
2023-01-11T17:58:42.301Z,22.17
2023-01-11T18:01:23.376Z,25.02
2023-01-11T18:03:57.218Z,27.50
2023-01-11T18:06:36.537Z,21.98
2023-01-11T18:09:07.030Z,20.95
2023-01-11T18:14:16.317Z,26.00
2023-01-11T18:17:22.673Z,29.90
2023-01-11T18:19:49.516Z,24.67
2023-01-11T18:22:54.499Z,27.95
2023-01-11T18:25:22.212Z,25.58
2023-01-11T18:27:49.670Z,25.33
2023-01-11T18:30:31.759Z,25.88
2023-01-11T18:33:01.955Z,25.67
2023-01-11T18:35:29.471Z,30.60
2023-01-11T18:37:56.780Z,23.65
2023-01-11T18:40:23.504Z,21.92
2023-01-11T18:42:52.480Z,28.77
2023-01-11T18:45:20.391Z,24.35
2023-01-11T18:47:47.306Z,22.02
2023-01-11T18:50:14.250Z,29.77
2023-01-11T18:52:41.183Z,25.70
2023-01-11T18:55:11.728Z,24.67
2023-01-11T18:57:38.389Z,27.00
2023-01-11T19:00:05.610Z,25.50
2023-01-11T19:02:42.413Z,24.38
2023-01-11T19:05:15.546Z,23.80
2023-01-11T19:07:42.486Z,26.15
2023-01-11T19:10:13.650Z,23.55
2023-01-11T19:12:41.290Z,24.83
2023-01-11T19:15:08.370Z,23.55
2023-01-11T19:17:35.516Z,24.73
2023-01-11T19:20:02.418Z,27.65
2023-01-11T19:22:29.114Z,23.58
2023-01-11T19:24:55.991Z,28.02
2023-01-11T19:27:23.477Z,29.65
2023-01-11T19:29:50.231Z,24.38
2023-01-11T19:32:18.505Z,25.02
2023-01-11T19:34:45.212Z,25.65
2023-01-11T19:37:11.953Z,29.73
2023-01-11T19:39:40.192Z,24.90
2023-01-11T19:42:07.090Z,25.17
2023-01-11T19:44:35.984Z,19.40
2023-01-11T19:47:12.417Z,22.60
2023-01-11T19:49:40.771Z,22.60
2023-01-11T19:52:19.122Z,30.58
2023-01-11T19:54:47.062Z,21.63
2023-01-11T19:57:20.400Z,25.52
2023-01-11T19:59:48.369Z,25.95
2023-01-11T20:02:17.896Z,23.30
2023-01-11T20:04:44.570Z,23.88
2023-01-11T20:07:13.006Z,23.42
2023-01-11T20:09:39.882Z,25.40
2023-01-11T20:12:08.696Z,25.67
2023-01-11T20:14:36.501Z,22.13
2023-01-11T20:17:03.336Z,20.73
2023-01-11T20:19:30.082Z,20.77
2023-01-11T20:21:56.970Z,20.52
2023-01-11T20:24:28.521Z,29.17
2023-01-11T20:27:00.943Z,21.48
2023-01-11T20:29:27.944Z,23.15
2023-01-11T20:31:55.116Z,18.50
2023-01-11T20:34:22.111Z,20.75
2023-01-11T20:36:49.153Z,22.80
2023-01-11T20:39:15.857Z,22.85
2023-01-11T20:41:51.721Z,21.42
2023-01-11T20:44:27.842Z,22.73
2023-01-11T20:46:56.346Z,19.02
2023-01-11T20:49:25.240Z,22.20
2023-01-11T20:51:52.057Z,20.75
2023-01-11T20:54:19.312Z,25.67
2023-01-11T20:56:48.913Z,22.08
2023-01-11T20:59:19.153Z,23.67
2023-01-11T21:01:50.101Z,23.25
2023-01-11T21:04:18.588Z,18.23
2023-01-11T21:06:50.028Z,24.63
2023-01-11T21:09:18.213Z,21.08
2023-01-11T21:11:52.485Z,23.27
2023-01-11T21:14:20.099Z,22.02
2023-01-11T21:16:46.882Z,23.50
2023-01-11T21:19:15.450Z,22.35
2023-01-11T21:21:42.552Z,25.25
2023-01-11T21:24:12.420Z,18.98
2023-01-11T21:26:39.513Z,24.92
2023-01-11T21:29:06.577Z,20.25
2023-01-11T21:31:36.079Z,21.40
2023-01-11T21:34:03.571Z,20.65
2023-01-11T21:36:31.764Z,23.60
2023-01-11T21:39:00.123Z,23.48
2023-01-11T21:41:48.009Z,23.52
2023-01-11T21:44:15.837Z,20.67
2023-01-11T21:46:43.132Z,22.23
2023-01-11T21:49:10.904Z,21.10
2023-01-11T21:51:38.083Z,24.23
2023-01-11T21:54:07.223Z,20.08
2023-01-11T21:56:34.617Z,22.13
2023-01-11T21:59:01.859Z,19.23
2023-01-11T22:01:29.000Z,21.35
2023-01-11T22:03:55.917Z,19.30
2023-01-11T22:06:23.087Z,21.67
2023-01-11T22:08:50.017Z,23.77
2023-01-11T22:11:17.803Z,24.35
2023-01-11T22:13:45.110Z,18.38
2023-01-11T22:16:17.599Z,24.20
2023-01-11T22:18:45.892Z,21.25
2023-01-11T22:21:15.422Z,18.60
2023-01-11T22:23:42.219Z,17.30
2023-01-11T22:26:14.757Z,21.70
2023-01-11T22:29:00.928Z,21.42
2023-01-11T22:31:29.804Z,19.65
2023-01-11T22:33:56.973Z,19.75
2023-01-11T22:36:25.236Z,19.67
2023-01-11T22:38:53.093Z,23.05
2023-01-11T22:41:20.470Z,20.55
2023-01-11T22:43:48.069Z,21.05
2023-01-11T22:46:18.405Z,19.60
2023-01-11T22:48:47.157Z,24.88
2023-01-11T22:51:15.138Z,19.08
2023-01-11T22:53:44.823Z,22.92
2023-01-11T22:56:13.316Z,17.20
2023-01-11T22:58:39.972Z,24.70
2023-01-11T23:01:24.476Z,17.67
2023-01-11T23:03:52.160Z,22.63
2023-01-11T23:06:43.770Z,24.25
2023-01-11T23:09:16.222Z,20.65
2023-01-11T23:12:02.138Z,18.23
2023-01-11T23:14:30.832Z,21.55
2023-01-11T23:17:07.492Z,21.05
2023-01-11T23:19:39.453Z,25.10
2023-01-11T23:22:07.819Z,24.73
2023-01-11T23:24:37.139Z,26.02
2023-01-11T23:27:04.804Z,24.08
2023-01-11T23:29:31.630Z,21.45
2023-01-11T23:31:58.645Z,22.13
2023-01-11T23:34:25.358Z,26.17
2023-01-11T23:36:52.158Z,22.30
2023-01-11T23:39:19.406Z,30.70
2023-01-11T23:42:05.360Z,19.17
2023-01-11T23:44:32.255Z,22.45
2023-01-11T23:47:17.798Z,23.30
2023-01-11T23:49:45.705Z,21.10
2023-01-11T23:52:12.552Z,25.10
2023-01-11T23:54:39.408Z,26.83
2023-01-11T23:57:06.549Z,18.60
2023-01-11T23:59:33.353Z,22.33
